createdAt,value
2023-05-09T00:01:20.725Z,23.73
2023-05-09T00:03:47.743Z,23.80
2023-05-09T00:06:15.439Z,23.07
2023-05-09T00:08:41.965Z,23.93
2023-05-09T00:11:08.438Z,23.13
2023-05-09T00:13:34.875Z,23.60
2023-05-09T00:16:01.395Z,24.23
2023-05-09T00:18:28.498Z,24.23
2023-05-09T00:20:55.019Z,20.93
2023-05-09T00:23:21.464Z,25.27
2023-05-09T00:25:48.039Z,22.63
2023-05-09T00:28:14.544Z,24.70
2023-05-09T00:30:41.020Z,25.53
2023-05-09T00:33:07.542Z,23.67
2023-05-09T00:35:34.893Z,25.10
2023-05-09T00:38:01.460Z,26.37
2023-05-09T00:40:27.945Z,24.43
2023-05-09T00:42:55.999Z,23.97
2023-05-09T00:45:22.493Z,23.83
2023-05-09T00:47:48.978Z,23.50
2023-05-09T00:50:15.516Z,23.33
2023-05-09T00:52:42.028Z,23.37
2023-05-09T00:55:08.954Z,23.37
2023-05-09T00:57:36.207Z,23.60
2023-05-09T01:00:04.460Z,24.47
2023-05-09T01:02:32.196Z,24.53
2023-05-09T01:04:59.009Z,25.50
2023-05-09T01:07:36.624Z,25.57
2023-05-09T01:10:14.264Z,22.03
2023-05-09T01:13:05.076Z,24.00
2023-05-09T01:16:23.721Z,22.97
2023-05-09T01:18:56.597Z,24.03
2023-05-09T01:21:30.739Z,24.33
2023-05-09T01:24:12.712Z,23.73
2023-05-09T01:26:48.003Z,24.20
2023-05-09T01:29:35.399Z,23.80
2023-05-09T01:32:10.105Z,23.90
2023-05-09T01:34:38.699Z,22.27
2023-05-09T01:37:05.804Z,25.13
2023-05-09T01:39:34.201Z,25.47
2023-05-09T01:42:03.476Z,25.17
2023-05-09T01:44:33.897Z,25.67
2023-05-09T01:47:01.287Z,25.73
2023-05-09T01:49:29.707Z,24.23
2023-05-09T01:51:56.544Z,24.87
2023-05-09T01:54:23.498Z,24.83
2023-05-09T01:56:50.201Z,24.63
2023-05-09T01:59:17.610Z,25.13
2023-05-09T02:01:45.731Z,26.43
2023-05-09T02:04:13.967Z,25.43
2023-05-09T02:06:40.814Z,27.23
2023-05-09T02:09:08.433Z,26.20
2023-05-09T02:11:34.896Z,26.93
2023-05-09T02:14:01.388Z,24.90
2023-05-09T02:16:28.031Z,25.23
2023-05-09T02:18:54.541Z,26.23
2023-05-09T02:21:21.065Z,25.77
2023-05-09T02:23:47.715Z,26.17
2023-05-09T02:26:14.339Z,24.60
2023-05-09T02:28:41.800Z,24.77
2023-05-09T02:31:08.490Z,25.97
2023-05-09T02:33:36.188Z,26.73
2023-05-09T02:36:02.783Z,27.00
2023-05-09T02:38:29.238Z,26.03
2023-05-09T02:40:55.831Z,28.27
2023-05-09T02:43:22.592Z,26.67
2023-05-09T02:45:49.088Z,28.73
2023-05-09T02:48:15.654Z,26.37
2023-05-09T02:50:43.442Z,25.67
2023-05-09T02:53:10.041Z,25.43
2023-05-09T02:55:36.555Z,27.47
2023-05-09T02:58:13.472Z,25.97
2023-05-09T03:00:41.023Z,27.60
2023-05-09T03:03:07.631Z,26.70
2023-05-09T03:05:34.213Z,28.90
2023-05-09T03:08:00.703Z,27.27
2023-05-09T03:10:27.207Z,28.77
2023-05-09T03:12:53.740Z,29.97
2023-05-09T03:15:20.960Z,29.50
2023-05-09T03:17:47.790Z,27.67
2023-05-09T03:20:15.023Z,28.80
2023-05-09T03:22:41.582Z,28.17
2023-05-09T03:25:08.213Z,29.17
2023-05-09T03:27:36.726Z,31.97
2023-05-09T03:30:03.390Z,27.63
2023-05-09T03:32:30.013Z,30.03
2023-05-09T03:34:57.272Z,28.30
2023-05-09T03:37:26.227Z,28.60
2023-05-09T03:39:53.497Z,27.87
2023-05-09T03:42:20.109Z,29.43
2023-05-09T03:44:46.659Z,28.87
2023-05-09T03:47:13.172Z,29.23
2023-05-09T03:49:39.627Z,29.03
2023-05-09T03:52:06.120Z,31.20
2023-05-09T03:54:32.586Z,29.50
2023-05-09T03:56:59.107Z,30.10
2023-05-09T03:59:25.583Z,28.87
2023-05-09T04:01:52.121Z,30.10
2023-05-09T04:04:18.594Z,30.93
2023-05-09T04:06:45.106Z,31.37
2023-05-09T04:09:11.564Z,30.77
2023-05-09T04:11:38.145Z,31.43
2023-05-09T04:14:07.241Z,29.40
2023-05-09T04:16:33.908Z,31.17
2023-05-09T04:19:00.471Z,31.00
2023-05-09T04:21:26.981Z,30.97
2023-05-09T04:23:53.533Z,31.07
2023-05-09T04:26:21.894Z,33.70
2023-05-09T04:28:48.376Z,33.90
2023-05-09T04:31:15.052Z,32.17
2023-05-09T04:33:41.611Z,29.50
2023-05-09T04:36:08.450Z,32.50
2023-05-09T04:38:35.270Z,31.80
2023-05-09T04:41:01.821Z,32.23
2023-05-09T04:43:28.421Z,31.33
2023-05-09T04:45:54.911Z,33.77
2023-05-09T04:48:21.417Z,32.67
2023-05-09T04:50:48.644Z,34.80
2023-05-09T04:53:15.190Z,33.17
2023-05-09T04:55:41.630Z,32.43
2023-05-09T04:58:09.268Z,32.87
2023-05-09T05:00:35.883Z,32.27
2023-05-09T05:03:02.460Z,35.07
2023-05-09T05:05:29.073Z,34.90
2023-05-09T05:07:55.783Z,35.20
2023-05-09T05:10:22.242Z,35.37
2023-05-09T05:12:48.797Z,33.67
2023-05-09T05:15:15.581Z,36.67
2023-05-09T05:17:42.319Z,34.00
2023-05-09T05:20:10.619Z,35.90
2023-05-09T05:22:37.114Z,34.10
2023-05-09T05:25:04.529Z,35.17
2023-05-09T05:27:31.534Z,33.80
2023-05-09T05:29:58.091Z,34.97
2023-05-09T05:32:24.629Z,37.40
2023-05-09T05:34:51.152Z,34.67
2023-05-09T05:37:17.602Z,36.20
2023-05-09T05:39:44.060Z,35.53
2023-05-09T05:42:10.608Z,36.60
2023-05-09T05:44:37.082Z,34.73
2023-05-09T05:47:03.557Z,36.43
2023-05-09T05:49:30.072Z,34.50
2023-05-09T05:51:56.514Z,36.20
2023-05-09T05:54:23.002Z,37.87
2023-05-09T05:56:49.475Z,34.50
2023-05-09T05:59:16.295Z,34.37
2023-05-09T06:01:42.857Z,35.07
2023-05-09T06:04:09.411Z,36.17
2023-05-09T06:06:35.943Z,38.20
2023-05-09T06:09:02.548Z,34.97
2023-05-09T06:11:28.987Z,39.03
2023-05-09T06:13:55.532Z,37.07
2023-05-09T06:16:22.104Z,36.50
2023-05-09T06:18:48.731Z,38.37
2023-05-09T06:21:15.214Z,36.33
2023-05-09T06:23:56.957Z,37.97
2023-05-09T06:26:23.985Z,37.60
2023-05-09T06:28:50.440Z,37.33
2023-05-09T06:31:16.944Z,37.97
2023-05-09T06:33:43.459Z,38.13
2023-05-09T06:36:10.006Z,39.53
2023-05-09T06:38:36.486Z,36.63
2023-05-09T06:41:02.965Z,37.70
2023-05-09T06:43:29.488Z,40.43
2023-05-09T06:45:55.981Z,35.70
2023-05-09T06:48:24.020Z,39.23
2023-05-09T06:50:50.732Z,39.37
2023-05-09T06:53:17.257Z,38.87
2023-05-09T06:55:44.135Z,41.13
2023-05-09T06:58:11.281Z,39.10
2023-05-09T07:00:38.089Z,40.43
2023-05-09T07:03:04.622Z,41.30
2023-05-09T07:05:31.185Z,37.10
2023-05-09T07:07:57.847Z,41.50
2023-05-09T07:10:24.532Z,36.67
2023-05-09T07:12:51.084Z,38.50
2023-05-09T07:15:28.763Z,39.53
2023-05-09T07:18:03.666Z,38.80
2023-05-09T07:20:30.210Z,37.87
2023-05-09T07:22:58.433Z,38.60
2023-05-09T07:25:24.961Z,39.90
2023-05-09T07:27:51.499Z,41.50
2023-05-09T07:30:18.047Z,38.53
2023-05-09T07:32:44.563Z,41.70
2023-05-09T07:35:11.171Z,37.83
2023-05-09T07:37:37.597Z,41.70
2023-05-09T07:40:06.167Z,45.30
2023-05-09T07:42:33.143Z,41.93
2023-05-09T07:45:00.365Z,53.93
2023-05-09T07:47:26.970Z,47.87
2023-05-09T07:49:53.431Z,40.30
2023-05-09T07:52:19.923Z,40.47
2023-05-09T07:54:46.469Z,40.10
2023-05-09T07:57:13.031Z,43.27
2023-05-09T07:59:39.530Z,39.87
2023-05-09T08:02:06.520Z,37.57
2023-05-09T08:04:33.105Z,39.03
2023-05-09T08:06:59.669Z,43.70
2023-05-09T08:09:26.661Z,42.80
2023-05-09T08:11:53.179Z,38.80
2023-05-09T08:14:19.642Z,42.90
2023-05-09T08:16:46.086Z,43.93
2023-05-09T08:19:13.183Z,41.67
2023-05-09T08:21:39.675Z,44.87
2023-05-09T08:24:08.060Z,40.17
2023-05-09T08:26:35.257Z,40.97
2023-05-09T08:29:01.895Z,41.30
2023-05-09T08:31:28.460Z,40.27
2023-05-09T08:33:54.982Z,42.80
2023-05-09T08:36:21.508Z,41.67
2023-05-09T08:38:47.942Z,45.73
2023-05-09T08:41:14.609Z,42.40
2023-05-09T08:43:41.702Z,40.90
2023-05-09T08:46:10.065Z,45.03
2023-05-09T08:48:39.441Z,48.17
2023-05-09T08:51:06.777Z,41.60
2023-05-09T08:53:34.378Z,43.80
2023-05-09T08:56:03.772Z,40.80
2023-05-09T08:58:31.359Z,46.00
2023-05-09T09:00:59.060Z,46.00
2023-05-09T09:03:26.326Z,43.33
2023-05-09T09:05:54.496Z,43.73
2023-05-09T09:08:22.365Z,41.83
2023-05-09T09:10:49.025Z,44.37
2023-05-09T09:13:17.528Z,42.80
2023-05-09T09:15:46.003Z,42.50
2023-05-09T09:18:16.866Z,40.33
2023-05-09T09:20:50.142Z,44.10
2023-05-09T09:23:21.094Z,43.97
2023-05-09T09:25:48.115Z,41.87
2023-05-09T09:28:15.067Z,38.90
2023-05-09T09:30:47.548Z,47.40
2023-05-09T09:33:21.627Z,42.57
2023-05-09T09:35:52.429Z,43.63
2023-05-09T09:38:19.807Z,42.97
2023-05-09T09:41:04.450Z,44.77
2023-05-09T09:43:31.977Z,41.57
2023-05-09T09:46:02.632Z,43.17
2023-05-09T09:48:35.870Z,41.57
2023-05-09T09:51:08.364Z,42.10
2023-05-09T09:53:39.779Z,42.93
2023-05-09T09:56:06.581Z,45.27
2023-05-09T09:58:33.085Z,44.57
2023-05-09T10:01:10.597Z,44.60
2023-05-09T10:03:42.218Z,43.07
2023-05-09T10:06:14.106Z,43.00
2023-05-09T10:08:41.241Z,41.37
2023-05-09T10:11:07.850Z,43.43
2023-05-09T10:13:38.441Z,48.37
2023-05-09T10:16:06.406Z,43.00
2023-05-09T10:18:33.964Z,43.57
2023-05-09T10:21:05.201Z,44.33
2023-05-09T10:23:33.209Z,44.97
2023-05-09T10:26:16.938Z,44.77
2023-05-09T10:28:45.980Z,41.87
2023-05-09T10:31:16.266Z,42.57
2023-05-09T10:33:47.500Z,46.47
2023-05-09T10:36:17.693Z,43.40
2023-05-09T10:38:44.281Z,44.60
2023-05-09T10:41:12.221Z,48.50
2023-05-09T10:43:39.010Z,45.97
2023-05-09T10:46:06.262Z,43.47
2023-05-09T10:48:33.445Z,48.20
2023-05-09T10:51:03.674Z,48.40
2023-05-09T10:53:44.562Z,46.03
2023-05-09T10:56:39.887Z,46.07
2023-05-09T10:59:06.505Z,46.40
2023-05-09T11:01:39.246Z,47.93
2023-05-09T11:04:14.556Z,48.47
2023-05-09T11:06:45.530Z,46.80
2023-05-09T11:09:38.907Z,47.57
2023-05-09T11:12:05.497Z,50.20
2023-05-09T11:14:39.599Z,48.90
2023-05-09T11:17:08.099Z,49.70
2023-05-09T11:19:39.259Z,47.03
2023-05-09T11:22:28.561Z,50.53
2023-05-09T11:25:11.163Z,48.27
2023-05-09T11:27:40.835Z,50.67
2023-05-09T11:30:08.231Z,47.67
2023-05-09T11:32:41.948Z,45.63
2023-05-09T11:35:17.805Z,49.30
2023-05-09T11:37:49.719Z,46.30
2023-05-09T11:40:18.294Z,45.70
2023-05-09T11:42:50.048Z,49.97
2023-05-09T11:45:17.880Z,44.83
2023-05-09T11:47:45.821Z,48.00
2023-05-09T11:50:13.875Z,46.03
2023-05-09T11:52:41.497Z,47.37
2023-05-09T11:55:13.759Z,48.33
2023-05-09T11:57:49.124Z,48.73
2023-05-09T12:00:17.364Z,47.73
2023-05-09T12:02:45.699Z,48.87
2023-05-09T12:05:14.657Z,47.37
2023-05-09T12:07:42.234Z,50.50
2023-05-09T12:10:10.826Z,46.67
2023-05-09T12:12:43.156Z,49.50
2023-05-09T12:15:10.113Z,49.57
2023-05-09T12:17:36.997Z,46.93
2023-05-09T12:20:07.480Z,47.17
2023-05-09T12:22:34.364Z,44.87
2023-05-09T12:25:02.580Z,48.43
2023-05-09T12:27:29.373Z,45.00
2023-05-09T12:29:56.100Z,46.83
2023-05-09T12:32:22.742Z,50.03
2023-05-09T12:34:49.917Z,49.07
2023-05-09T12:37:18.270Z,46.27
2023-05-09T12:39:45.938Z,49.27
2023-05-09T12:42:13.597Z,49.00
2023-05-09T12:44:40.189Z,45.33
2023-05-09T12:47:06.670Z,45.40
2023-05-09T12:49:36.495Z,45.13
2023-05-09T12:52:04.767Z,43.80
2023-05-09T12:54:31.636Z,44.23
2023-05-09T12:56:58.589Z,45.90
2023-05-09T12:59:27.184Z,47.77
2023-05-09T13:01:57.983Z,94.13
2023-05-09T13:04:26.093Z,135.23
2023-05-09T13:06:55.580Z,97.20
2023-05-09T13:09:23.204Z,116.73
2023-05-09T13:11:51.001Z,198.60
2023-05-09T13:14:18.464Z,115.00
2023-05-09T13:16:45.087Z,89.20
2023-05-09T13:19:12.226Z,158.93
2023-05-09T13:21:38.753Z,209.37
2023-05-09T13:24:05.724Z,196.30
2023-05-09T13:26:32.390Z,202.33
2023-05-09T13:28:58.945Z,138.60
2023-05-09T13:31:25.753Z,215.80
2023-05-09T13:33:52.492Z,118.33
2023-05-09T13:36:19.351Z,74.80
2023-05-09T13:38:46.211Z,142.97
2023-05-09T13:41:13.706Z,253.50
2023-05-09T13:43:42.595Z,62.67
2023-05-09T13:46:09.201Z,160.07
2023-05-09T13:48:35.750Z,121.87
2023-05-09T13:51:03.713Z,162.03
2023-05-09T13:53:30.252Z,258.20
2023-05-09T13:55:57.043Z,100.00
2023-05-09T13:58:23.537Z,97.00
2023-05-09T14:00:50.297Z,110.57
2023-05-09T14:03:16.818Z,168.93
2023-05-09T14:05:43.409Z,88.73
2023-05-09T14:08:09.938Z,197.40
2023-05-09T14:10:36.392Z,103.77
2023-05-09T14:13:02.970Z,153.73
2023-05-09T14:15:29.957Z,125.60
2023-05-09T14:17:57.097Z,96.10
2023-05-09T14:20:23.696Z,73.33
2023-05-09T14:22:50.204Z,90.33
2023-05-09T14:25:16.962Z,117.97
2023-05-09T14:27:43.473Z,73.17
2023-05-09T14:30:10.406Z,112.47
2023-05-09T14:32:37.219Z,194.90
2023-05-09T14:35:04.105Z,99.20
2023-05-09T14:37:30.663Z,110.43
2023-05-09T14:40:05.259Z,84.57
2023-05-09T14:42:32.095Z,153.77
2023-05-09T14:44:58.750Z,72.97
2023-05-09T14:47:25.241Z,109.10
2023-05-09T14:49:52.335Z,138.03
2023-05-09T14:52:18.854Z,207.83
2023-05-09T14:54:45.414Z,118.10
2023-05-09T14:57:11.998Z,133.33
2023-05-09T14:59:38.480Z,194.47
2023-05-09T15:02:05.428Z,57.53
2023-05-09T15:04:31.990Z,69.80
2023-05-09T15:06:59.174Z,80.13
2023-05-09T15:09:25.849Z,105.17
2023-05-09T15:11:52.405Z,57.97
2023-05-09T15:14:18.919Z,141.90
2023-05-09T15:16:45.724Z,102.60
2023-05-09T15:19:12.355Z,94.47
2023-05-09T15:21:38.855Z,50.57
2023-05-09T15:24:05.627Z,61.90
2023-05-09T15:26:32.412Z,69.37
2023-05-09T15:28:59.116Z,112.93
2023-05-09T15:31:25.918Z,132.43
2023-05-09T15:33:52.516Z,149.93
2023-05-09T15:36:18.968Z,128.27
2023-05-09T15:38:49.378Z,144.03
2023-05-09T15:41:16.207Z,120.20
2023-05-09T15:43:42.878Z,143.60
2023-05-09T15:46:09.664Z,77.17
2023-05-09T15:48:36.285Z,85.47
2023-05-09T15:51:04.088Z,85.50
2023-05-09T15:53:30.773Z,96.07
2023-05-09T15:55:57.262Z,90.00
2023-05-09T15:58:23.785Z,116.50
2023-05-09T16:00:50.307Z,73.30
2023-05-09T16:03:16.994Z,61.97
2023-05-09T16:05:43.875Z,57.23
2023-05-09T16:08:10.679Z,73.37
2023-05-09T16:10:37.150Z,77.63
2023-05-09T16:13:03.674Z,55.03
2023-05-09T16:15:30.222Z,41.40
2023-05-09T16:17:56.958Z,77.93
2023-05-09T16:20:23.458Z,43.83
2023-05-09T16:22:49.957Z,41.93
2023-05-09T16:25:16.892Z,52.60
2023-05-09T16:27:43.377Z,34.90
2023-05-09T16:30:10.292Z,134.20
2023-05-09T16:32:37.006Z,76.83
2023-05-09T16:35:04.219Z,73.77
2023-05-09T16:37:31.084Z,41.23
2023-05-09T16:39:59.519Z,40.87
2023-05-09T16:42:26.067Z,79.53
2023-05-09T16:44:52.690Z,69.63
2023-05-09T16:47:19.174Z,31.67
2023-05-09T16:49:45.993Z,51.03
2023-05-09T16:52:12.490Z,80.73
2023-05-09T16:54:38.955Z,31.13
2023-05-09T16:57:05.922Z,58.27
2023-05-09T16:59:32.892Z,60.50
2023-05-09T17:02:00.029Z,36.40
2023-05-09T17:04:27.519Z,59.60
2023-05-09T17:06:54.192Z,25.57
2023-05-09T17:09:20.739Z,23.27
2023-05-09T17:11:48.268Z,22.57
2023-05-09T17:14:14.871Z,45.43
2023-05-09T17:16:41.413Z,26.67
2023-05-09T17:19:07.942Z,20.70
2023-05-09T17:21:34.948Z,32.03
2023-05-09T17:24:02.206Z,24.33
2023-05-09T17:26:29.607Z,38.83
2023-05-09T17:28:56.217Z,21.27
2023-05-09T17:31:22.834Z,20.93
2023-05-09T17:33:49.448Z,35.73
2023-05-09T17:36:15.972Z,30.10
2023-05-09T17:38:42.482Z,29.77
2023-05-09T17:41:09.049Z,40.50
2023-05-09T17:43:35.568Z,19.83
2023-05-09T17:46:02.289Z,30.67
2023-05-09T17:48:29.263Z,19.40
2023-05-09T17:50:56.255Z,19.57
2023-05-09T17:53:22.814Z,32.43
2023-05-09T17:55:49.269Z,19.97
2023-05-09T17:58:15.773Z,21.77
2023-05-09T18:00:42.313Z,33.80
2023-05-09T18:03:08.888Z,26.40
2023-05-09T18:05:35.475Z,35.47
2023-05-09T18:08:03.455Z,20.67
2023-05-09T18:10:30.001Z,18.03
2023-05-09T18:12:56.684Z,16.03
2023-05-09T18:15:24.423Z,16.80
2023-05-09T18:17:51.105Z,16.93
2023-05-09T18:20:18.162Z,18.93
2023-05-09T18:22:44.889Z,18.97
2023-05-09T18:25:11.580Z,20.80
2023-05-09T18:27:38.357Z,16.80
2023-05-09T18:30:05.416Z,16.53
2023-05-09T18:32:32.481Z,19.20
2023-05-09T18:34:59.037Z,17.40
2023-05-09T18:37:25.582Z,15.70
2023-05-09T18:39:52.108Z,21.53
2023-05-09T18:42:19.214Z,17.10
2023-05-09T18:44:45.996Z,16.67
2023-05-09T18:47:12.634Z,15.07
2023-05-09T18:49:39.283Z,14.83
2023-05-09T18:52:05.889Z,16.77
2023-05-09T18:54:32.523Z,15.07
2023-05-09T18:56:58.964Z,14.47
2023-05-09T18:59:25.495Z,16.53
2023-05-09T19:01:52.005Z,15.07
2023-05-09T19:04:19.518Z,20.13
2023-05-09T19:06:46.697Z,15.77
2023-05-09T19:09:13.289Z,13.73
2023-05-09T19:11:39.794Z,13.87
2023-05-09T19:14:06.593Z,13.83
2023-05-09T19:16:33.333Z,13.57
2023-05-09T19:19:01.028Z,13.47
2023-05-09T19:21:28.353Z,13.47
2023-05-09T19:23:54.991Z,12.87
2023-05-09T19:26:22.074Z,12.50
2023-05-09T19:28:48.745Z,12.53
2023-05-09T19:31:15.645Z,20.13
2023-05-09T19:33:45.336Z,14.87
2023-05-09T19:36:11.970Z,12.93
2023-05-09T19:38:39.904Z,12.80
2023-05-09T19:41:06.458Z,14.33
2023-05-09T19:43:32.940Z,13.40
2023-05-09T19:46:00.019Z,13.07
2023-05-09T19:48:26.631Z,14.63
2023-05-09T19:50:56.460Z,12.10
2023-05-09T19:53:22.922Z,12.87
2023-05-09T19:55:49.564Z,13.37
2023-05-09T19:58:17.754Z,14.13
2023-05-09T20:00:46.534Z,13.37
2023-05-09T20:03:13.330Z,13.13
2023-05-09T20:05:39.995Z,14.43
2023-05-09T20:08:09.408Z,13.20
2023-05-09T20:10:38.078Z,12.90
2023-05-09T20:13:05.425Z,13.27
2023-05-09T20:15:33.088Z,14.10
2023-05-09T20:18:03.659Z,13.53
2023-05-09T20:20:32.303Z,13.90
2023-05-09T20:23:00.476Z,13.43
2023-05-09T20:25:29.914Z,13.63
2023-05-09T20:27:56.452Z,12.97
2023-05-09T20:30:23.027Z,13.13
2023-05-09T20:32:49.528Z,13.03
2023-05-09T20:35:16.413Z,13.27
2023-05-09T20:37:42.954Z,13.73
2023-05-09T20:40:09.874Z,13.33
2023-05-09T20:42:36.478Z,13.17
2023-05-09T20:45:03.745Z,12.43
2023-05-09T20:47:30.250Z,16.53
2023-05-09T20:49:58.361Z,13.73
2023-05-09T20:52:25.158Z,11.60
2023-05-09T20:54:51.650Z,12.47
2023-05-09T20:57:19.017Z,13.30
2023-05-09T20:59:45.611Z,14.60
2023-05-09T21:02:12.147Z,14.67
2023-05-09T21:04:38.638Z,13.23
2023-05-09T21:07:05.255Z,15.33
2023-05-09T21:09:31.782Z,12.07
2023-05-09T21:11:58.726Z,13.20
2023-05-09T21:14:25.187Z,14.27
2023-05-09T21:16:51.983Z,11.63
2023-05-09T21:19:18.579Z,12.23
2023-05-09T21:21:45.430Z,15.17
2023-05-09T21:24:11.932Z,12.97
2023-05-09T21:26:38.796Z,13.10
2023-05-09T21:29:05.367Z,12.43
2023-05-09T21:31:31.855Z,13.27
2023-05-09T21:33:59.116Z,13.93
2023-05-09T21:36:28.145Z,14.23
2023-05-09T21:38:54.953Z,15.40
2023-05-09T21:41:22.509Z,13.13
2023-05-09T21:43:49.543Z,14.03
2023-05-09T21:46:16.578Z,14.63
2023-05-09T21:48:43.021Z,14.27
2023-05-09T21:51:10.272Z,13.90
2023-05-09T21:53:36.817Z,14.27
2023-05-09T21:56:03.472Z,13.27
2023-05-09T21:58:29.915Z,16.03
2023-05-09T22:00:56.386Z,17.77
2023-05-09T22:03:23.323Z,15.50
2023-05-09T22:05:50.148Z,13.57
2023-05-09T22:08:17.207Z,12.73
2023-05-09T22:10:43.684Z,14.80
2023-05-09T22:13:10.286Z,16.37
2023-05-09T22:15:36.842Z,15.07
2023-05-09T22:18:03.490Z,15.30
2023-05-09T22:20:29.985Z,15.00
2023-05-09T22:22:56.434Z,14.73
2023-05-09T22:25:23.136Z,19.73
2023-05-09T22:27:50.075Z,15.43
2023-05-09T22:30:17.522Z,14.67
2023-05-09T22:32:44.677Z,16.50
2023-05-09T22:35:11.888Z,15.63
2023-05-09T22:37:38.433Z,17.17
2023-05-09T22:40:05.935Z,17.53
2023-05-09T22:42:34.282Z,15.90
2023-05-09T22:45:01.109Z,16.37
2023-05-09T22:47:27.610Z,13.80
2023-05-09T22:49:54.198Z,14.60
2023-05-09T22:52:20.686Z,16.87
2023-05-09T22:54:47.716Z,22.53
2023-05-09T22:57:17.703Z,16.70
2023-05-09T22:59:44.401Z,15.60
2023-05-09T23:02:10.902Z,15.73
2023-05-09T23:04:37.401Z,15.20
2023-05-09T23:07:03.872Z,14.03
2023-05-09T23:09:31.484Z,21.27
2023-05-09T23:11:59.548Z,16.27
2023-05-09T23:14:26.017Z,14.30
2023-05-09T23:16:52.527Z,16.73
2023-05-09T23:19:19.768Z,13.80
2023-05-09T23:21:46.225Z,15.83
2023-05-09T23:24:12.726Z,15.83
2023-05-09T23:26:39.198Z,15.67
2023-05-09T23:29:05.752Z,15.67
2023-05-09T23:31:32.284Z,18.03
2023-05-09T23:33:58.805Z,15.57
2023-05-09T23:36:25.410Z,16.60
2023-05-09T23:38:51.905Z,16.87
2023-05-09T23:41:18.544Z,15.10
2023-05-09T23:43:45.077Z,16.50
2023-05-09T23:46:11.539Z,16.40
2023-05-09T23:48:38.052Z,16.07
2023-05-09T23:51:04.667Z,14.90
2023-05-09T23:53:34.939Z,14.87
2023-05-09T23:56:02.571Z,16.13
2023-05-09T23:58:29.087Z,16.30
